sensor_id;sensor_type;location;lat;lon;timestamp;P1;durP1;ratioP1;P2;durP2;ratioP2
15358;SDS011;7779;49.596;11.070;2022-07-23T00:00:00;7.40;;;6.00;;
15358;SDS011;7779;49.596;11.070;2022-07-23T00:02:26;6.33;;;5.77;;
15358;SDS011;7779;49.596;11.070;2022-07-23T00:04:52;6.20;;;5.60;;
15358;SDS011;7779;49.596;11.070;2022-07-23T00:07:18;6.57;;;5.97;;
15358;SDS011;7779;49.596;11.070;2022-07-23T00:09:44;6.80;;;6.00;;
15358;SDS011;7779;49.596;11.070;2022-07-23T00:12:10;7.07;;;5.90;;
15358;SDS011;7779;49.596;11.070;2022-07-23T00:14:36;6.43;;;5.80;;
15358;SDS011;7779;49.596;11.070;2022-07-23T00:17:02;6.43;;;5.73;;
15358;SDS011;7779;49.596;11.070;2022-07-23T00:19:27;6.30;;;5.80;;
15358;SDS011;7779;49.596;11.070;2022-07-23T00:21:54;5.93;;;5.40;;
15358;SDS011;7779;49.596;11.070;2022-07-23T00:24:20;6.53;;;5.93;;
15358;SDS011;7779;49.596;11.070;2022-07-23T00:26:46;5.77;;;5.17;;
15358;SDS011;7779;49.596;11.070;2022-07-23T00:29:12;6.10;;;5.60;;
15358;SDS011;7779;49.596;11.070;2022-07-23T00:31:38;5.83;;;5.33;;
15358;SDS011;7779;49.596;11.070;2022-07-23T00:34:04;5.50;;;5.10;;
15358;SDS011;7779;49.596;11.070;2022-07-23T00:36:29;5.67;;;5.03;;
15358;SDS011;7779;49.596;11.070;2022-07-23T00:38:56;7.20;;;5.37;;
15358;SDS011;7779;49.596;11.070;2022-07-23T00:41:22;6.57;;;5.87;;
15358;SDS011;7779;49.596;11.070;2022-07-23T00:43:48;6.70;;;6.10;;
15358;SDS011;7779;49.596;11.070;2022-07-23T00:46:19;6.77;;;6.03;;
15358;SDS011;7779;49.596;11.070;2022-07-23T00:48:46;8.20;;;6.10;;
15358;SDS011;7779;49.596;11.070;2022-07-23T00:51:14;6.90;;;6.20;;
15358;SDS011;7779;49.596;11.070;2022-07-23T00:53:41;7.03;;;6.33;;
15358;SDS011;7779;49.596;11.070;2022-07-23T00:56:09;6.90;;;6.03;;
15358;SDS011;7779;49.596;11.070;2022-07-23T00:58:36;6.60;;;5.93;;
15358;SDS011;7779;49.596;11.070;2022-07-23T01:01:04;7.10;;;6.40;;
15358;SDS011;7779;49.596;11.070;2022-07-23T01:03:30;6.47;;;5.80;;
15358;SDS011;7779;49.596;11.070;2022-07-23T01:05:56;6.80;;;6.17;;
15358;SDS011;7779;49.596;11.070;2022-07-23T01:08:23;6.43;;;5.83;;
15358;SDS011;7779;49.596;11.070;2022-07-23T01:10:49;6.80;;;6.20;;
15358;SDS011;7779;49.596;11.070;2022-07-23T01:13:16;6.90;;;6.30;;
15358;SDS011;7779;49.596;11.070;2022-07-23T01:15:42;6.90;;;6.20;;
15358;SDS011;7779;49.596;11.070;2022-07-23T01:18:08;6.77;;;6.17;;
15358;SDS011;7779;49.596;11.070;2022-07-23T01:20:37;6.40;;;5.80;;
15358;SDS011;7779;49.596;11.070;2022-07-23T01:23:04;7.80;;;6.67;;
15358;SDS011;7779;49.596;11.070;2022-07-23T01:25:30;7.57;;;6.80;;
15358;SDS011;7779;49.596;11.070;2022-07-23T01:27:59;7.20;;;6.50;;
15358;SDS011;7779;49.596;11.070;2022-07-23T01:30:25;6.57;;;5.97;;
15358;SDS011;7779;49.596;11.070;2022-07-23T01:32:51;6.80;;;6.20;;
15358;SDS011;7779;49.596;11.070;2022-07-23T01:35:18;7.00;;;6.30;;
15358;SDS011;7779;49.596;11.070;2022-07-23T01:37:44;9.83;;;6.23;;
15358;SDS011;7779;49.596;11.070;2022-07-23T01:40:11;7.53;;;6.27;;
15358;SDS011;7779;49.596;11.070;2022-07-23T01:42:37;7.17;;;6.50;;
15358;SDS011;7779;49.596;11.070;2022-07-23T01:45:04;6.93;;;6.33;;
15358;SDS011;7779;49.596;11.070;2022-07-23T01:47:32;7.43;;;6.60;;
15358;SDS011;7779;49.596;11.070;2022-07-23T01:49:58;6.73;;;6.17;;
15358;SDS011;7779;49.596;11.070;2022-07-23T01:52:34;7.60;;;6.87;;
15358;SDS011;7779;49.596;11.070;2022-07-23T01:55:00;6.90;;;6.40;;
15358;SDS011;7779;49.596;11.070;2022-07-23T01:57:27;7.13;;;6.47;;
15358;SDS011;7779;49.596;11.070;2022-07-23T01:59:54;7.03;;;6.43;;
15358;SDS011;7779;49.596;11.070;2022-07-23T02:02:21;7.77;;;6.57;;
15358;SDS011;7779;49.596;11.070;2022-07-23T02:04:46;7.43;;;6.63;;
15358;SDS011;7779;49.596;11.070;2022-07-23T02:07:14;7.50;;;6.80;;
15358;SDS011;7779;49.596;11.070;2022-07-23T02:09:40;7.47;;;6.63;;
15358;SDS011;7779;49.596;11.070;2022-07-23T02:12:06;7.77;;;7.00;;
15358;SDS011;7779;49.596;11.070;2022-07-23T02:14:32;7.70;;;7.10;;
15358;SDS011;7779;49.596;11.070;2022-07-23T02:16:58;7.23;;;6.63;;
15358;SDS011;7779;49.596;11.070;2022-07-23T02:19:24;7.17;;;6.57;;
15358;SDS011;7779;49.596;11.070;2022-07-23T02:21:50;8.20;;;6.80;;
15358;SDS011;7779;49.596;11.070;2022-07-23T02:24:18;7.30;;;6.60;;
15358;SDS011;7779;49.596;11.070;2022-07-23T02:26:44;8.07;;;6.73;;
15358;SDS011;7779;49.596;11.070;2022-07-23T02:29:10;7.27;;;6.63;;
15358;SDS011;7779;49.596;11.070;2022-07-23T02:31:36;7.10;;;6.50;;
15358;SDS011;7779;49.596;11.070;2022-07-23T02:34:02;7.63;;;7.03;;
15358;SDS011;7779;49.596;11.070;2022-07-23T02:36:28;7.03;;;6.43;;
15358;SDS011;7779;49.596;11.070;2022-07-23T02:38:56;7.60;;;6.90;;
15358;SDS011;7779;49.596;11.070;2022-07-23T02:41:22;8.53;;;6.90;;
15358;SDS011;7779;49.596;11.070;2022-07-23T02:43:48;7.13;;;6.50;;
15358;SDS011;7779;49.596;11.070;2022-07-23T02:46:15;7.00;;;6.40;;
15358;SDS011;7779;49.596;11.070;2022-07-23T02:48:41;7.07;;;6.47;;
15358;SDS011;7779;49.596;11.070;2022-07-23T02:51:07;7.57;;;6.87;;
15358;SDS011;7779;49.596;11.070;2022-07-23T02:53:38;7.50;;;6.53;;
15358;SDS011;7779;49.596;11.070;2022-07-23T02:56:04;7.33;;;6.73;;
15358;SDS011;7779;49.596;11.070;2022-07-23T02:58:30;7.20;;;6.57;;
15358;SDS011;7779;49.596;11.070;2022-07-23T03:00:55;7.47;;;6.53;;
15358;SDS011;7779;49.596;11.070;2022-07-23T03:03:24;6.87;;;6.27;;
15358;SDS011;7779;49.596;11.070;2022-07-23T03:05:50;7.03;;;6.33;;
15358;SDS011;7779;49.596;11.070;2022-07-23T03:08:16;7.53;;;6.93;;
15358;SDS011;7779;49.596;11.070;2022-07-23T03:10:46;7.07;;;6.47;;
15358;SDS011;7779;49.596;11.070;2022-07-23T03:13:12;7.07;;;6.37;;
15358;SDS011;7779;49.596;11.070;2022-07-23T03:15:39;7.80;;;6.60;;
15358;SDS011;7779;49.596;11.070;2022-07-23T03:18:05;7.50;;;6.67;;
15358;SDS011;7779;49.596;11.070;2022-07-23T03:20:30;7.10;;;6.40;;
15358;SDS011;7779;49.596;11.070;2022-07-23T03:22:56;7.27;;;6.67;;
15358;SDS011;7779;49.596;11.070;2022-07-23T03:25:22;7.40;;;6.70;;
15358;SDS011;7779;49.596;11.070;2022-07-23T03:27:48;6.93;;;6.33;;
15358;SDS011;7779;49.596;11.070;2022-07-23T03:30:14;7.70;;;7.00;;
15358;SDS011;7779;49.596;11.070;2022-07-23T03:32:40;7.30;;;6.60;;
15358;SDS011;7779;49.596;11.070;2022-07-23T03:35:06;7.60;;;6.90;;
15358;SDS011;7779;49.596;11.070;2022-07-23T03:37:34;7.20;;;6.60;;
15358;SDS011;7779;49.596;11.070;2022-07-23T03:40:00;7.17;;;6.47;;
15358;SDS011;7779;49.596;11.070;2022-07-23T03:42:26;7.97;;;7.20;;
15358;SDS011;7779;49.596;11.070;2022-07-23T03:44:52;7.53;;;6.77;;
15358;SDS011;7779;49.596;11.070;2022-07-23T03:47:18;7.77;;;7.00;;
15358;SDS011;7779;49.596;11.070;2022-07-23T03:49:47;8.07;;;7.27;;
15358;SDS011;7779;49.596;11.070;2022-07-23T03:52:14;7.47;;;6.77;;
15358;SDS011;7779;49.596;11.070;2022-07-23T03:54:40;7.80;;;7.10;;
15358;SDS011;7779;49.596;11.070;2022-07-23T03:57:06;8.87;;;6.87;;
15358;SDS011;7779;49.596;11.070;2022-07-23T03:59:32;7.80;;;7.00;;
15358;SDS011;7779;49.596;11.070;2022-07-23T04:01:58;8.20;;;7.37;;
15358;SDS011;7779;49.596;11.070;2022-07-23T04:04:24;7.80;;;7.13;;
15358;SDS011;7779;49.596;11.070;2022-07-23T04:06:50;8.13;;;7.40;;
15358;SDS011;7779;49.596;11.070;2022-07-23T04:09:16;7.37;;;6.67;;
15358;SDS011;7779;49.596;11.070;2022-07-23T04:11:42;8.03;;;7.30;;
15358;SDS011;7779;49.596;11.070;2022-07-23T04:14:07;8.00;;;7.20;;
15358;SDS011;7779;49.596;11.070;2022-07-23T04:16:33;7.60;;;6.90;;
15358;SDS011;7779;49.596;11.070;2022-07-23T04:18:59;9.43;;;7.70;;
15358;SDS011;7779;49.596;11.070;2022-07-23T04:21:28;7.70;;;7.00;;
15358;SDS011;7779;49.596;11.070;2022-07-23T04:23:54;7.37;;;6.67;;
15358;SDS011;7779;49.596;11.070;2022-07-23T04:26:20;7.90;;;7.10;;
15358;SDS011;7779;49.596;11.070;2022-07-23T04:28:46;8.30;;;7.50;;
15358;SDS011;7779;49.596;11.070;2022-07-23T04:31:12;7.30;;;6.57;;
15358;SDS011;7779;49.596;11.070;2022-07-23T04:33:38;7.93;;;7.07;;
15358;SDS011;7779;49.596;11.070;2022-07-23T04:36:06;7.87;;;6.57;;
15358;SDS011;7779;49.596;11.070;2022-07-23T04:38:32;7.30;;;6.63;;
15358;SDS011;7779;49.596;11.070;2022-07-23T04:41:01;7.47;;;6.77;;
15358;SDS011;7779;49.596;11.070;2022-07-23T04:43:27;7.33;;;6.40;;
15358;SDS011;7779;49.596;11.070;2022-07-23T04:45:53;8.30;;;6.97;;
15358;SDS011;7779;49.596;11.070;2022-07-23T04:48:19;7.20;;;6.60;;
15358;SDS011;7779;49.596;11.070;2022-07-23T04:50:48;7.23;;;6.60;;
15358;SDS011;7779;49.596;11.070;2022-07-23T04:53:21;9.17;;;6.70;;
15358;SDS011;7779;49.596;11.070;2022-07-23T04:55:49;7.50;;;6.80;;
15358;SDS011;7779;49.596;11.070;2022-07-23T04:58:15;7.50;;;6.80;;
15358;SDS011;7779;49.596;11.070;2022-07-23T05:00:41;7.50;;;6.90;;
15358;SDS011;7779;49.596;11.070;2022-07-23T05:03:07;7.97;;;7.00;;
15358;SDS011;7779;49.596;11.070;2022-07-23T05:05:33;7.33;;;6.63;;
15358;SDS011;7779;49.596;11.070;2022-07-23T05:08:06;7.10;;;6.50;;
15358;SDS011;7779;49.596;11.070;2022-07-23T05:10:36;7.73;;;6.33;;
15358;SDS011;7779;49.596;11.070;2022-07-23T05:13:02;6.93;;;6.20;;
15358;SDS011;7779;49.596;11.070;2022-07-23T05:15:28;6.90;;;6.30;;
15358;SDS011;7779;49.596;11.070;2022-07-23T05:17:54;6.93;;;6.43;;
15358;SDS011;7779;49.596;11.070;2022-07-23T05:20:20;7.20;;;6.40;;
15358;SDS011;7779;49.596;11.070;2022-07-23T05:22:46;6.93;;;6.23;;
15358;SDS011;7779;49.596;11.070;2022-07-23T05:25:12;6.73;;;6.03;;
15358;SDS011;7779;49.596;11.070;2022-07-23T05:27:38;6.60;;;6.10;;
15358;SDS011;7779;49.596;11.070;2022-07-23T05:30:04;6.77;;;6.07;;
15358;SDS011;7779;49.596;11.070;2022-07-23T05:32:34;6.80;;;6.17;;
15358;SDS011;7779;49.596;11.070;2022-07-23T05:35:10;6.20;;;5.60;;
15358;SDS011;7779;49.596;11.070;2022-07-23T05:37:40;6.30;;;5.70;;
15358;SDS011;7779;49.596;11.070;2022-07-23T05:40:07;6.30;;;5.80;;
15358;SDS011;7779;49.596;11.070;2022-07-23T05:42:39;6.10;;;5.60;;
15358;SDS011;7779;49.596;11.070;2022-07-23T05:45:07;6.30;;;5.80;;
15358;SDS011;7779;49.596;11.070;2022-07-23T05:47:46;5.43;;;5.03;;
15358;SDS011;7779;49.596;11.070;2022-07-23T05:50:20;6.23;;;5.73;;
15358;SDS011;7779;49.596;11.070;2022-07-23T05:52:52;5.90;;;5.40;;
15358;SDS011;7779;49.596;11.070;2022-07-23T05:55:23;5.63;;;5.13;;
15358;SDS011;7779;49.596;11.070;2022-07-23T05:57:50;6.03;;;5.53;;
15358;SDS011;7779;49.596;11.070;2022-07-23T06:00:16;5.43;;;5.00;;
15358;SDS011;7779;49.596;11.070;2022-07-23T06:02:44;5.13;;;4.70;;
15358;SDS011;7779;49.596;11.070;2022-07-23T06:05:11;5.10;;;4.70;;
15358;SDS011;7779;49.596;11.070;2022-07-23T06:07:38;5.73;;;5.23;;
15358;SDS011;7779;49.596;11.070;2022-07-23T06:10:04;4.97;;;4.50;;
15358;SDS011;7779;49.596;11.070;2022-07-23T06:12:30;6.07;;;4.60;;
15358;SDS011;7779;49.596;11.070;2022-07-23T06:14:57;4.57;;;4.23;;
15358;SDS011;7779;49.596;11.070;2022-07-23T06:17:23;4.67;;;4.27;;
15358;SDS011;7779;49.596;11.070;2022-07-23T06:19:49;5.37;;;4.80;;
15358;SDS011;7779;49.596;11.070;2022-07-23T06:22:15;4.80;;;4.40;;
15358;SDS011;7779;49.596;11.070;2022-07-23T06:24:41;4.60;;;4.27;;
15358;SDS011;7779;49.596;11.070;2022-07-23T06:27:07;4.60;;;4.30;;
15358;SDS011;7779;49.596;11.070;2022-07-23T06:29:33;4.80;;;4.40;;
15358;SDS011;7779;49.596;11.070;2022-07-23T06:31:59;4.50;;;4.10;;
15358;SDS011;7779;49.596;11.070;2022-07-23T06:34:27;6.03;;;4.23;;
15358;SDS011;7779;49.596;11.070;2022-07-23T06:36:54;4.40;;;4.00;;
15358;SDS011;7779;49.596;11.070;2022-07-23T06:39:20;4.40;;;4.00;;
15358;SDS011;7779;49.596;11.070;2022-07-23T06:41:47;4.20;;;3.90;;
15358;SDS011;7779;49.596;11.070;2022-07-23T06:44:16;4.33;;;3.93;;
15358;SDS011;7779;49.596;11.070;2022-07-23T06:46:42;4.30;;;4.00;;
15358;SDS011;7779;49.596;11.070;2022-07-23T06:49:09;4.70;;;4.20;;
15358;SDS011;7779;49.596;11.070;2022-07-23T06:51:35;4.13;;;3.73;;
15358;SDS011;7779;49.596;11.070;2022-07-23T06:54:01;3.77;;;3.47;;
15358;SDS011;7779;49.596;11.070;2022-07-23T06:56:28;4.70;;;4.30;;
15358;SDS011;7779;49.596;11.070;2022-07-23T06:58:54;3.70;;;3.40;;
15358;SDS011;7779;49.596;11.070;2022-07-23T07:01:20;3.80;;;3.50;;
15358;SDS011;7779;49.596;11.070;2022-07-23T07:03:46;3.90;;;3.60;;
15358;SDS011;7779;49.596;11.070;2022-07-23T07:06:12;4.10;;;3.80;;
15358;SDS011;7779;49.596;11.070;2022-07-23T07:08:40;4.20;;;3.80;;
15358;SDS011;7779;49.596;11.070;2022-07-23T07:11:06;4.37;;;4.00;;
15358;SDS011;7779;49.596;11.070;2022-07-23T07:13:33;4.67;;;4.27;;
15358;SDS011;7779;49.596;11.070;2022-07-23T07:15:59;5.10;;;4.67;;
15358;SDS011;7779;49.596;11.070;2022-07-23T07:18:25;5.70;;;5.07;;
15358;SDS011;7779;49.596;11.070;2022-07-23T07:20:51;4.70;;;4.30;;
15358;SDS011;7779;49.596;11.070;2022-07-23T07:23:16;4.97;;;4.57;;
15358;SDS011;7779;49.596;11.070;2022-07-23T07:25:42;4.50;;;4.13;;
15358;SDS011;7779;49.596;11.070;2022-07-23T07:28:08;4.50;;;4.20;;
15358;SDS011;7779;49.596;11.070;2022-07-23T07:30:34;5.03;;;4.50;;
15358;SDS011;7779;49.596;11.070;2022-07-23T07:33:00;4.10;;;3.80;;
15358;SDS011;7779;49.596;11.070;2022-07-23T07:35:26;4.43;;;4.03;;
15358;SDS011;7779;49.596;11.070;2022-07-23T07:37:52;4.90;;;4.40;;
15358;SDS011;7779;49.596;11.070;2022-07-23T07:40:17;5.37;;;4.87;;
15358;SDS011;7779;49.596;11.070;2022-07-23T07:42:45;5.10;;;4.70;;
15358;SDS011;7779;49.596;11.070;2022-07-23T07:45:16;4.63;;;4.23;;
15358;SDS011;7779;49.596;11.070;2022-07-23T07:47:45;4.40;;;4.10;;
15358;SDS011;7779;49.596;11.070;2022-07-23T07:50:11;4.40;;;4.00;;
15358;SDS011;7779;49.596;11.070;2022-07-23T07:52:36;4.87;;;4.43;;
15358;SDS011;7779;49.596;11.070;2022-07-23T07:55:06;4.43;;;4.03;;
15358;SDS011;7779;49.596;11.070;2022-07-23T07:57:34;4.43;;;4.13;;
15358;SDS011;7779;49.596;11.070;2022-07-23T08:00:01;5.37;;;4.20;;
15358;SDS011;7779;49.596;11.070;2022-07-23T08:02:50;4.23;;;3.83;;
15358;SDS011;7779;49.596;11.070;2022-07-23T08:05:19;4.13;;;3.83;;
15358;SDS011;7779;49.596;11.070;2022-07-23T08:07:49;4.13;;;3.83;;
15358;SDS011;7779;49.596;11.070;2022-07-23T08:10:15;4.20;;;3.90;;
15358;SDS011;7779;49.596;11.070;2022-07-23T08:12:43;4.23;;;3.93;;
15358;SDS011;7779;49.596;11.070;2022-07-23T08:15:15;4.33;;;4.00;;
15358;SDS011;7779;49.596;11.070;2022-07-23T08:17:44;4.43;;;3.93;;
15358;SDS011;7779;49.596;11.070;2022-07-23T08:20:12;4.70;;;4.13;;
15358;SDS011;7779;49.596;11.070;2022-07-23T08:22:42;6.13;;;3.97;;
15358;SDS011;7779;49.596;11.070;2022-07-23T08:25:11;4.13;;;3.73;;
15358;SDS011;7779;49.596;11.070;2022-07-23T08:27:38;6.07;;;4.63;;
15358;SDS011;7779;49.596;11.070;2022-07-23T08:30:04;5.27;;;4.50;;
15358;SDS011;7779;49.596;11.070;2022-07-23T08:32:31;8.37;;;4.80;;
15358;SDS011;7779;49.596;11.070;2022-07-23T08:34:57;6.53;;;4.00;;
15358;SDS011;7779;49.596;11.070;2022-07-23T08:37:22;7.30;;;4.77;;
15358;SDS011;7779;49.596;11.070;2022-07-23T08:39:48;5.23;;;4.03;;
15358;SDS011;7779;49.596;11.070;2022-07-23T08:42:14;5.50;;;4.47;;
15358;SDS011;7779;49.596;11.070;2022-07-23T08:44:41;4.80;;;4.40;;
15358;SDS011;7779;49.596;11.070;2022-07-23T08:47:12;5.13;;;4.67;;
15358;SDS011;7779;49.596;11.070;2022-07-23T08:49:40;4.57;;;4.17;;
15358;SDS011;7779;49.596;11.070;2022-07-23T08:52:07;5.77;;;4.57;;
15358;SDS011;7779;49.596;11.070;2022-07-23T08:54:34;4.97;;;4.27;;
15358;SDS011;7779;49.596;11.070;2022-07-23T08:57:00;6.87;;;4.80;;
15358;SDS011;7779;49.596;11.070;2022-07-23T08:59:25;4.53;;;4.13;;
15358;SDS011;7779;49.596;11.070;2022-07-23T09:01:52;5.77;;;5.17;;
15358;SDS011;7779;49.596;11.070;2022-07-23T09:04:18;5.43;;;4.47;;
15358;SDS011;7779;49.596;11.070;2022-07-23T09:06:44;5.67;;;5.03;;
15358;SDS011;7779;49.596;11.070;2022-07-23T09:09:17;5.23;;;4.73;;
15358;SDS011;7779;49.596;11.070;2022-07-23T09:11:47;5.90;;;4.97;;
15358;SDS011;7779;49.596;11.070;2022-07-23T09:14:39;5.33;;;4.83;;
15358;SDS011;7779;49.596;11.070;2022-07-23T09:17:14;5.30;;;4.80;;
15358;SDS011;7779;49.596;11.070;2022-07-23T09:19:44;4.97;;;4.57;;
15358;SDS011;7779;49.596;11.070;2022-07-23T09:22:20;5.37;;;4.87;;
15358;SDS011;7779;49.596;11.070;2022-07-23T09:27:46;5.53;;;4.70;;
15358;SDS011;7779;49.596;11.070;2022-07-23T09:30:21;4.80;;;4.40;;
15358;SDS011;7779;49.596;11.070;2022-07-23T09:33:11;5.50;;;5.00;;
15358;SDS011;7779;49.596;11.070;2022-07-23T09:35:45;5.60;;;5.10;;
15358;SDS011;7779;49.596;11.070;2022-07-23T09:38:24;5.10;;;4.70;;
15358;SDS011;7779;49.596;11.070;2022-07-23T09:41:09;6.03;;;5.30;;
15358;SDS011;7779;49.596;11.070;2022-07-23T09:43:36;5.80;;;5.20;;
15358;SDS011;7779;49.596;11.070;2022-07-23T09:46:18;5.20;;;4.80;;
15358;SDS011;7779;49.596;11.070;2022-07-23T09:48:50;5.27;;;4.77;;
15358;SDS011;7779;49.596;11.070;2022-07-23T09:51:22;5.47;;;4.97;;
15358;SDS011;7779;49.596;11.070;2022-07-23T09:53:52;5.47;;;4.97;;
15358;SDS011;7779;49.596;11.070;2022-07-23T09:56:18;5.53;;;5.03;;
15358;SDS011;7779;49.596;11.070;2022-07-23T09:58:48;4.97;;;4.57;;
15358;SDS011;7779;49.596;11.070;2022-07-23T10:01:34;5.20;;;4.80;;
15358;SDS011;7779;49.596;11.070;2022-07-23T10:04:01;5.83;;;5.33;;
15358;SDS011;7779;49.596;11.070;2022-07-23T10:06:47;5.30;;;4.80;;
15358;SDS011;7779;49.596;11.070;2022-07-23T10:09:37;5.70;;;5.20;;
15358;SDS011;7779;49.596;11.070;2022-07-23T10:12:29;5.30;;;4.80;;
15358;SDS011;7779;49.596;11.070;2022-07-23T10:15:14;5.23;;;4.73;;
15358;SDS011;7779;49.596;11.070;2022-07-23T10:17:40;5.13;;;4.73;;
15358;SDS011;7779;49.596;11.070;2022-07-23T10:20:07;5.47;;;4.97;;
15358;SDS011;7779;49.596;11.070;2022-07-23T10:22:35;5.50;;;5.10;;
15358;SDS011;7779;49.596;11.070;2022-07-23T10:34:30;5.20;;;4.70;;
15358;SDS011;7779;49.596;11.070;2022-07-23T10:37:28;5.37;;;4.87;;
15358;SDS011;7779;49.596;11.070;2022-07-23T10:40:35;4.43;;;4.03;;
15358;SDS011;7779;49.596;11.070;2022-07-23T10:42:58;5.20;;;4.70;;
15358;SDS011;7779;49.596;11.070;2022-07-23T10:48:32;5.30;;;4.80;;
15358;SDS011;7779;49.596;11.070;2022-07-23T10:51:11;5.20;;;4.80;;
15358;SDS011;7779;49.596;11.070;2022-07-23T10:59:22;4.80;;;4.33;;
15358;SDS011;7779;49.596;11.070;2022-07-23T11:01:48;4.80;;;4.40;;
15358;SDS011;7779;49.596;11.070;2022-07-23T11:04:15;4.87;;;4.47;;
15358;SDS011;7779;49.596;11.070;2022-07-23T11:15:03;4.87;;;4.47;;
15358;SDS011;7779;49.596;11.070;2022-07-23T11:20:16;5.13;;;4.70;;
15358;SDS011;7779;49.596;11.070;2022-07-23T11:22:47;5.47;;;5.00;;
15358;SDS011;7779;49.596;11.070;2022-07-23T11:27:48;4.90;;;4.50;;
15358;SDS011;7779;49.596;11.070;2022-07-23T11:32:51;5.40;;;5.00;;
15358;SDS011;7779;49.596;11.070;2022-07-23T11:35:33;5.90;;;4.83;;
15358;SDS011;7779;49.596;11.070;2022-07-23T11:38:05;7.73;;;5.00;;
15358;SDS011;7779;49.596;11.070;2022-07-23T11:40:44;5.77;;;5.17;;
15358;SDS011;7779;49.596;11.070;2022-07-23T11:43:19;5.30;;;4.80;;
15358;SDS011;7779;49.596;11.070;2022-07-23T11:45:48;5.27;;;4.83;;
15358;SDS011;7779;49.596;11.070;2022-07-23T11:48:25;5.10;;;4.70;;
15358;SDS011;7779;49.596;11.070;2022-07-23T11:50:53;5.00;;;4.50;;
15358;SDS011;7779;49.596;11.070;2022-07-23T11:53:29;5.33;;;4.90;;
15358;SDS011;7779;49.596;11.070;2022-07-23T11:56:04;5.40;;;4.90;;
15358;SDS011;7779;49.596;11.070;2022-07-23T11:58:33;5.20;;;4.80;;
15358;SDS011;7779;49.596;11.070;2022-07-23T12:00:59;5.30;;;4.90;;
15358;SDS011;7779;49.596;11.070;2022-07-23T12:03:25;5.30;;;4.80;;
15358;SDS011;7779;49.596;11.070;2022-07-23T12:05:55;5.70;;;5.20;;
15358;SDS011;7779;49.596;11.070;2022-07-23T12:08:23;5.07;;;4.60;;
15358;SDS011;7779;49.596;11.070;2022-07-23T12:10:49;5.90;;;5.40;;
15358;SDS011;7779;49.596;11.070;2022-07-23T12:13:16;5.33;;;4.83;;
15358;SDS011;7779;49.596;11.070;2022-07-23T12:15:49;5.33;;;4.93;;
15358;SDS011;7779;49.596;11.070;2022-07-23T12:18:21;5.13;;;4.73;;
15358;SDS011;7779;49.596;11.070;2022-07-23T12:20:50;5.07;;;4.67;;
15358;SDS011;7779;49.596;11.070;2022-07-23T12:23:21;5.20;;;4.80;;
15358;SDS011;7779;49.596;11.070;2022-07-23T12:25:50;5.47;;;4.97;;
15358;SDS011;7779;49.596;11.070;2022-07-23T12:28:36;5.60;;;5.10;;
15358;SDS011;7779;49.596;11.070;2022-07-23T12:31:03;5.47;;;5.07;;
15358;SDS011;7779;49.596;11.070;2022-07-23T12:33:30;4.93;;;4.53;;
15358;SDS011;7779;49.596;11.070;2022-07-23T12:36:03;4.87;;;4.47;;
15358;SDS011;7779;49.596;11.070;2022-07-23T12:38:50;4.87;;;4.57;;
15358;SDS011;7779;49.596;11.070;2022-07-23T12:41:16;6.03;;;4.80;;
15358;SDS011;7779;49.596;11.070;2022-07-23T12:43:43;5.00;;;4.50;;
15358;SDS011;7779;49.596;11.070;2022-07-23T12:46:12;5.60;;;5.10;;
15358;SDS011;7779;49.596;11.070;2022-07-23T12:53:46;5.10;;;4.70;;
15358;SDS011;7779;49.596;11.070;2022-07-23T12:56:15;4.90;;;4.50;;
15358;SDS011;7779;49.596;11.070;2022-07-23T13:01:35;5.23;;;4.43;;
15358;SDS011;7779;49.596;11.070;2022-07-23T13:04:22;4.50;;;4.10;;
15358;SDS011;7779;49.596;11.070;2022-07-23T13:06:50;5.00;;;4.60;;
15358;SDS011;7779;49.596;11.070;2022-07-23T13:09:19;5.00;;;4.50;;
15358;SDS011;7779;49.596;11.070;2022-07-23T13:11:49;5.30;;;4.80;;
15358;SDS011;7779;49.596;11.070;2022-07-23T13:14:17;4.80;;;4.40;;
15358;SDS011;7779;49.596;11.070;2022-07-23T13:16:46;5.00;;;4.60;;
15358;SDS011;7779;49.596;11.070;2022-07-23T13:19:14;4.87;;;4.40;;
15358;SDS011;7779;49.596;11.070;2022-07-23T13:21:41;5.00;;;4.60;;
15358;SDS011;7779;49.596;11.070;2022-07-23T13:24:08;5.00;;;4.60;;
15358;SDS011;7779;49.596;11.070;2022-07-23T13:26:37;4.90;;;4.50;;
15358;SDS011;7779;49.596;11.070;2022-07-23T13:29:03;5.50;;;5.10;;
15358;SDS011;7779;49.596;11.070;2022-07-23T13:31:30;5.47;;;5.00;;
15358;SDS011;7779;49.596;11.070;2022-07-23T13:33:56;5.20;;;4.80;;
15358;SDS011;7779;49.596;11.070;2022-07-23T13:36:22;5.03;;;4.63;;
15358;SDS011;7779;49.596;11.070;2022-07-23T13:38:48;5.20;;;4.80;;
15358;SDS011;7779;49.596;11.070;2022-07-23T13:41:14;5.03;;;4.63;;
15358;SDS011;7779;49.596;11.070;2022-07-23T13:43:43;5.03;;;4.63;;
15358;SDS011;7779;49.596;11.070;2022-07-23T13:46:09;5.47;;;5.00;;
15358;SDS011;7779;49.596;11.070;2022-07-23T13:48:35;5.30;;;4.90;;
15358;SDS011;7779;49.596;11.070;2022-07-23T13:51:01;5.43;;;5.03;;
15358;SDS011;7779;49.596;11.070;2022-07-23T13:53:27;4.93;;;4.57;;
15358;SDS011;7779;49.596;11.070;2022-07-23T13:55:53;5.00;;;4.60;;
15358;SDS011;7779;49.596;11.070;2022-07-23T13:58:19;4.73;;;4.43;;
15358;SDS011;7779;49.596;11.070;2022-07-23T14:00:47;5.80;;;5.07;;
15358;SDS011;7779;49.596;11.070;2022-07-23T14:03:16;5.53;;;5.03;;
15358;SDS011;7779;49.596;11.070;2022-07-23T14:05:43;5.17;;;4.63;;
15358;SDS011;7779;49.596;11.070;2022-07-23T14:08:09;5.00;;;4.60;;
15358;SDS011;7779;49.596;11.070;2022-07-23T14:10:35;5.37;;;4.87;;
15358;SDS011;7779;49.596;11.070;2022-07-23T14:13:02;5.03;;;4.63;;
15358;SDS011;7779;49.596;11.070;2022-07-23T14:15:28;4.67;;;4.30;;
15358;SDS011;7779;49.596;11.070;2022-07-23T14:17:56;5.10;;;4.70;;
15358;SDS011;7779;49.596;11.070;2022-07-23T14:20:23;5.03;;;4.63;;
15358;SDS011;7779;49.596;11.070;2022-07-23T14:22:50;4.90;;;4.50;;
15358;SDS011;7779;49.596;11.070;2022-07-23T14:25:16;5.20;;;4.80;;
15358;SDS011;7779;49.596;11.070;2022-07-23T14:27:43;5.10;;;4.70;;
15358;SDS011;7779;49.596;11.070;2022-07-23T14:30:10;4.80;;;4.50;;
15358;SDS011;7779;49.596;11.070;2022-07-23T14:32:38;5.23;;;4.73;;
15358;SDS011;7779;49.596;11.070;2022-07-23T14:35:04;4.90;;;4.50;;
15358;SDS011;7779;49.596;11.070;2022-07-23T14:37:31;5.30;;;4.90;;
15358;SDS011;7779;49.596;11.070;2022-07-23T14:39:57;6.50;;;5.10;;
15358;SDS011;7779;49.596;11.070;2022-07-23T14:42:24;5.03;;;4.63;;
15358;SDS011;7779;49.596;11.070;2022-07-23T14:44:50;5.17;;;4.77;;
15358;SDS011;7779;49.596;11.070;2022-07-23T14:47:17;5.30;;;4.70;;
15358;SDS011;7779;49.596;11.070;2022-07-23T14:49:43;4.87;;;4.47;;
15358;SDS011;7779;49.596;11.070;2022-07-23T14:52:09;5.27;;;4.87;;
15358;SDS011;7779;49.596;11.070;2022-07-23T14:54:35;4.93;;;4.53;;
15358;SDS011;7779;49.596;11.070;2022-07-23T14:57:01;4.43;;;4.13;;
15358;SDS011;7779;49.596;11.070;2022-07-23T14:59:28;4.90;;;4.50;;
15358;SDS011;7779;49.596;11.070;2022-07-23T15:01:55;4.73;;;4.40;;
15358;SDS011;7779;49.596;11.070;2022-07-23T15:04:23;5.17;;;4.60;;
15358;SDS011;7779;49.596;11.070;2022-07-23T15:06:49;5.07;;;4.67;;
15358;SDS011;7779;49.596;11.070;2022-07-23T15:09:15;4.80;;;4.40;;
15358;SDS011;7779;49.596;11.070;2022-07-23T15:11:41;4.57;;;4.10;;
15358;SDS011;7779;49.596;11.070;2022-07-23T15:14:08;4.53;;;4.13;;
15358;SDS011;7779;49.596;11.070;2022-07-23T15:16:34;4.87;;;4.47;;
15358;SDS011;7779;49.596;11.070;2022-07-23T15:19:01;4.90;;;4.50;;
15358;SDS011;7779;49.596;11.070;2022-07-23T15:21:28;4.90;;;4.50;;
15358;SDS011;7779;49.596;11.070;2022-07-23T15:23:55;5.00;;;4.60;;
15358;SDS011;7779;49.596;11.070;2022-07-23T15:26:24;4.67;;;4.27;;
15358;SDS011;7779;49.596;11.070;2022-07-23T15:28:55;4.93;;;4.43;;
15358;SDS011;7779;49.596;11.070;2022-07-23T15:31:24;4.87;;;4.47;;
15358;SDS011;7779;49.596;11.070;2022-07-23T15:33:50;4.43;;;4.13;;
15358;SDS011;7779;49.596;11.070;2022-07-23T15:36:17;4.70;;;4.30;;
15358;SDS011;7779;49.596;11.070;2022-07-23T15:38:45;4.73;;;4.43;;